Time;durP1;ratioP1;P1;durP2;ratioP2;P2;SDS_P1;SDS_P2;PMS_P1;PMS_P2;Temp;Humidity;BMP_temperature;BMP_pressure;BME280_temperature;BME280_humidity;BME280_pressure;Samples;Min_cycle;Max_cycle;Signal;HPM_P1;HPM_P2
2022/07/22 00:01:53;;;;;;;0.90;0.90;;;16.70;99.90;;;;;;5013161;28;20199;-70
2022/07/22 00:04:19;;;;;;;0.93;0.93;;;16.70;99.90;;;;;;5013393;28;20258;-70
2022/07/22 00:06:44;;;;;;;1.27;1.17;;;16.60;99.90;;;;;;5012242;28;20225;-70
2022/07/22 00:09:10;;;;;;;1.33;1.23;;;16.60;99.90;;;;;;5013008;28;20194;-70
2022/07/22 00:11:36;;;;;;;0.50;0.50;;;16.50;99.90;;;;;;5013183;28;20200;-70
2022/07/22 00:14:02;;;;;;;1.47;1.37;;;16.40;99.90;;;;;;5013287;28;20245;-70
2022/07/22 00:16:27;;;;;;;1.00;1.00;;;16.40;99.90;;;;;;5013382;28;20203;-70
2022/07/22 00:18:53;;;;;;;0.80;0.80;;;16.30;99.90;;;;;;5012814;28;20830;-70
2022/07/22 00:21:19;;;;;;;1.10;1.07;;;16.30;99.90;;;;;;5013265;28;20229;-70
2022/07/22 00:23:44;;;;;;;1.27;1.20;;;16.30;99.90;;;;;;5015172;28;20202;-70
2022/07/22 00:26:10;;;;;;;1.83;1.27;;;16.30;99.90;;;;;;5016573;28;20402;-70
2022/07/22 00:28:36;;;;;;;0.67;0.60;;;16.30;99.90;;;;;;5016498;28;20178;-70
2022/07/22 00:31:02;;;;;;;1.03;0.93;;;16.40;99.90;;;;;;5016391;28;20245;-70
2022/07/22 00:33:28;;;;;;;1.13;1.03;;;16.40;99.90;;;;;;5016363;28;20178;-70
2022/07/22 00:35:53;;;;;;;1.33;1.23;;;16.40;99.90;;;;;;5016541;28;20422;-70
2022/07/22 00:38:19;;;;;;;1.33;1.33;;;16.40;99.90;;;;;;5016232;28;20654;-70
2022/07/22 00:40:45;;;;;;;1.30;1.20;;;16.40;99.90;;;;;;5016213;28;20572;-70
2022/07/22 00:43:10;;;;;;;1.07;1.07;;;16.40;99.90;;;;;;5016261;28;20199;-71
2022/07/22 00:45:36;;;;;;;0.83;0.83;;;16.30;99.90;;;;;;5016146;28;20540;-71
2022/07/22 00:48:02;;;;;;;0.80;0.80;;;16.30;99.90;;;;;;5015940;28;20176;-70
2022/07/22 00:50:27;;;;;;;0.80;0.80;;;16.30;99.90;;;;;;5016044;28;20202;-70
2022/07/22 00:52:53;;;;;;;1.53;1.40;;;16.20;99.90;;;;;;5014861;28;20277;-71
2022/07/22 00:55:19;;;;;;;0.90;0.80;;;16.20;99.90;;;;;;5016255;28;20173;-70
2022/07/22 00:57:45;;;;;;;0.87;0.77;;;16.20;99.90;;;;;;5015866;28;20191;-70
2022/07/22 01:00:15;;;;;;;1.07;1.07;;;16.20;99.90;;;;;;5015920;28;20276;-70
2022/07/22 01:02:41;;;;;;;2.07;1.87;;;16.20;99.90;;;;;;5016283;28;20662;-70
2022/07/22 01:05:07;;;;;;;0.93;0.93;;;16.10;99.90;;;;;;5015889;28;20411;-70
2022/07/22 01:07:32;;;;;;;1.70;1.00;;;16.10;99.90;;;;;;5014347;28;20935;-70
2022/07/22 01:09:58;;;;;;;1.60;1.50;;;16.10;99.90;;;;;;5015887;28;20446;-70
2022/07/22 01:12:24;;;;;;;0.83;0.83;;;16.20;99.90;;;;;;5015834;28;20692;-70
2022/07/22 01:14:49;;;;;;;1.60;1.27;;;16.20;99.90;;;;;;5015807;28;20207;-70
2022/07/22 01:17:16;;;;;;;1.53;1.50;;;16.20;99.90;;;;;;5015400;28;20192;-71
2022/07/22 01:19:42;;;;;;;2.00;1.70;;;16.20;99.90;;;;;;5015530;28;20229;-70
2022/07/22 01:22:08;;;;;;;1.33;1.10;;;16.10;99.90;;;;;;5015404;28;20454;-70
2022/07/22 01:24:34;;;;;;;2.07;1.97;;;16.10;99.90;;;;;;5015328;28;20273;-70
2022/07/22 01:27:00;;;;;;;1.20;0.93;;;16.20;99.90;;;;;;5015279;28;20251;-70
2022/07/22 01:29:26;;;;;;;1.43;1.33;;;16.20;99.90;;;;;;5015498;28;20437;-70
2022/07/22 01:31:52;;;;;;;1.30;1.20;;;16.20;99.90;;;;;;5015344;28;20265;-70
2022/07/22 01:34:17;;;;;;;1.17;1.07;;;16.20;99.90;;;;;;5014389;28;20824;-70
2022/07/22 01:36:43;;;;;;;1.63;1.23;;;16.20;99.90;;;;;;5015599;28;20186;-70
2022/07/22 01:39:08;;;;;;;1.00;0.90;;;16.20;99.90;;;;;;5015040;28;20191;-70
2022/07/22 01:41:34;;;;;;;1.70;1.60;;;16.10;99.90;;;;;;5015080;28;20171;-70
2022/07/22 01:44:00;;;;;;;0.90;0.90;;;16.10;99.90;;;;;;5015257;28;20163;-71
2022/07/22 01:46:25;;;;;;;1.40;1.30;;;16.10;99.90;;;;;;5015221;28;20538;-70
2022/07/22 01:48:52;;;;;;;1.00;1.00;;;16.20;99.90;;;;;;5014803;28;20248;-70
2022/07/22 01:51:18;;;;;;;3.03;1.03;;;16.20;99.90;;;;;;5014971;28;20174;-71
2022/07/22 01:53:44;;;;;;;0.90;0.90;;;16.10;99.90;;;;;;5015175;28;20407;-70
2022/07/22 01:56:10;;;;;;;1.43;1.33;;;16.10;99.90;;;;;;5015063;28;20504;-70
2022/07/22 01:58:36;;;;;;;1.63;1.10;;;16.10;99.90;;;;;;5014735;28;20178;-70
2022/07/22 02:01:02;;;;;;;1.57;1.47;;;16.10;99.90;;;;;;5014929;28;20189;-70
2022/07/22 02:03:27;;;;;;;1.17;1.17;;;16.10;99.90;;;;;;5014945;28;20455;-70
2022/07/22 02:05:53;;;;;;;1.07;1.07;;;16.10;99.90;;;;;;5014753;28;20891;-70
2022/07/22 02:08:19;;;;;;;0.90;0.90;;;16.10;99.90;;;;;;5014769;28;20177;-70
2022/07/22 02:10:44;;;;;;;0.67;0.67;;;16.10;99.90;;;;;;5014579;28;20223;-70
2022/07/22 02:13:10;;;;;;;1.57;1.47;;;16.10;99.90;;;;;;5014715;28;20541;-70
2022/07/22 02:15:36;;;;;;;1.63;1.53;;;16.10;99.90;;;;;;5014738;28;20175;-70
2022/07/22 02:18:13;;;;;;;1.53;1.43;;;16.10;99.90;;;;;;5014403;28;20163;-70
2022/07/22 02:20:39;;;;;;;1.53;1.43;;;16.20;99.90;;;;;;5014486;28;20214;-71
2022/07/22 02:23:05;;;;;;;1.73;1.63;;;16.10;99.90;;;;;;5014389;28;20797;-70
2022/07/22 02:25:31;;;;;;;2.20;2.10;;;16.20;99.90;;;;;;5014467;28;20487;-70
2022/07/22 02:27:57;;;;;;;2.07;1.63;;;16.10;99.90;;;;;;5014212;28;20409;-70
2022/07/22 02:30:23;;;;;;;1.03;0.93;;;16.10;99.90;;;;;;5014255;28;20971;-70
2022/07/22 02:32:48;;;;;;;1.80;1.53;;;16.10;99.90;;;;;;5014465;28;20181;-70
2022/07/22 02:35:14;;;;;;;1.93;1.27;;;16.10;99.90;;;;;;5014605;28;20198;-70
2022/07/22 02:37:40;;;;;;;1.63;1.50;;;16.10;99.90;;;;;;5014269;28;20182;-70
2022/07/22 02:40:06;;;;;;;1.13;1.13;;;16.10;99.90;;;;;;5014231;28;20199;-70
2022/07/22 02:42:32;;;;;;;1.87;1.77;;;16.10;99.90;;;;;;5014043;28;20201;-70
2022/07/22 02:44:57;;;;;;;1.47;1.37;;;16.10;99.90;;;;;;5014541;28;20739;-71
2022/07/22 02:47:23;;;;;;;1.23;1.13;;;16.00;99.90;;;;;;5013672;28;20186;-71
2022/07/22 02:49:48;;;;;;;2.40;1.70;;;16.10;99.90;;;;;;5014051;28;20190;-70
2022/07/22 02:52:14;;;;;;;1.57;1.47;;;16.10;99.90;;;;;;5014088;28;20168;-70
2022/07/22 02:54:40;;;;;;;1.93;1.83;;;16.10;99.90;;;;;;5014127;28;20178;-70
2022/07/22 02:57:06;;;;;;;2.87;2.40;;;16.00;99.90;;;;;;5013682;28;20171;-70
2022/07/22 02:59:31;;;;;;;1.57;1.53;;;16.00;99.90;;;;;;5013849;28;20242;-70
2022/07/22 03:01:57;;;;;;;0.80;0.73;;;16.00;99.90;;;;;;5013820;28;20198;-70
2022/07/22 03:04:22;;;;;;;1.40;1.07;;;15.90;99.90;;;;;;5014008;28;20173;-70
2022/07/22 03:06:48;;;;;;;0.87;0.87;;;16.00;99.90;;;;;;5013816;28;20169;-70
2022/07/22 03:09:14;;;;;;;1.50;1.40;;;15.90;99.90;;;;;;5013529;28;20193;-70
2022/07/22 03:11:39;;;;;;;1.17;1.07;;;15.90;99.90;;;;;;5012386;28;20221;-70
2022/07/22 03:14:06;;;;;;;0.90;0.90;;;15.80;99.90;;;;;;5013897;28;20229;-70
2022/07/22 03:16:32;;;;;;;1.33;1.23;;;15.90;99.90;;;;;;5013749;28;20193;-71
2022/07/22 03:18:58;;;;;;;1.17;0.80;;;15.80;99.90;;;;;;5013487;28;20411;-70
2022/07/22 03:21:23;;;;;;;3.30;3.03;;;15.80;99.90;;;;;;5013673;28;20510;-70
2022/07/22 03:23:53;;;;;;;2.27;2.07;;;15.80;99.90;;;;;;5013557;28;20211;-70
2022/07/22 03:26:20;;;;;;;1.33;1.23;;;15.80;99.90;;;;;;5013814;28;20167;-70
2022/07/22 03:28:46;;;;;;;1.87;1.77;;;15.80;99.90;;;;;;5013360;28;20407;-70
2022/07/22 03:31:11;;;;;;;1.47;1.37;;;15.90;99.90;;;;;;5013482;28;20434;-70
2022/07/22 03:33:37;;;;;;;1.73;1.63;;;15.80;99.90;;;;;;5013593;28;20901;-70
2022/07/22 03:36:05;;;;;;;2.20;2.10;;;15.90;99.90;;;;;;5013697;28;20225;-70
2022/07/22 03:38:31;;;;;;;4.67;1.60;;;15.90;99.90;;;;;;5013383;28;20182;-70
2022/07/22 03:40:56;;;;;;;1.30;0.97;;;15.90;99.90;;;;;;5013325;28;20449;-70
2022/07/22 03:43:22;;;;;;;0.60;0.60;;;15.90;99.90;;;;;;5013378;28;20299;-70
2022/07/22 03:45:48;;;;;;;2.13;1.53;;;15.80;99.90;;;;;;5013646;28;20616;-70
2022/07/22 03:48:13;;;;;;;2.00;1.20;;;15.80;99.90;;;;;;5013197;28;20169;-70
2022/07/22 03:50:39;;;;;;;3.63;1.50;;;15.80;99.90;;;;;;5013324;28;20241;-68
2022/07/22 03:53:05;;;;;;;2.00;1.90;;;15.80;99.90;;;;;;5013529;28;20627;-69
2022/07/22 03:55:30;;;;;;;4.40;1.80;;;16.10;99.90;;;;;;5013228;28;20542;-70
2022/07/22 03:57:56;;;;;;;1.63;1.53;;;16.70;99.90;;;;;;5012656;28;20191;-70
2022/07/22 04:00:21;;;;;;;1.23;1.13;;;17.10;99.90;;;;;;5017321;28;20250;-70
2022/07/22 04:02:47;;;;;;;1.33;1.27;;;17.10;99.90;;;;;;5016590;28;20238;-70
2022/07/22 04:05:13;;;;;;;1.37;1.27;;;17.00;99.90;;;;;;5016689;28;20589;-71
2022/07/22 04:07:38;;;;;;;1.80;1.60;;;16.90;99.90;;;;;;5016709;28;20617;-71
2022/07/22 04:10:04;;;;;;;0.73;0.73;;;16.70;99.90;;;;;;5017075;28;20642;-71
2022/07/22 04:12:40;;;;;;;0.77;0.77;;;16.60;99.90;;;;;;5016959;28;20179;-70
2022/07/22 04:15:07;;;;;;;1.00;1.00;;;16.50;99.90;;;;;;5017306;28;20402;-71
2022/07/22 04:17:33;;;;;;;1.33;1.23;;;16.40;99.90;;;;;;5016801;28;20473;-70
2022/07/22 04:20:00;;;;;;;1.53;1.13;;;16.30;99.90;;;;;;5016852;28;20845;-70
2022/07/22 04:22:29;;;;;;;1.43;1.33;;;16.30;99.90;;;;;;5017315;28;20457;-71
2022/07/22 04:24:54;;;;;;;0.93;0.93;;;16.30;99.90;;;;;;5016721;28;20480;-70
2022/07/22 04:27:20;;;;;;;1.23;1.13;;;16.20;99.90;;;;;;5016467;28;20410;-70
2022/07/22 04:29:45;;;;;;;1.80;1.70;;;16.20;99.90;;;;;;5016843;28;20195;-70
2022/07/22 04:32:11;;;;;;;0.80;0.80;;;16.30;99.90;;;;;;5016391;28;20182;-70
2022/07/22 04:34:37;;;;;;;0.93;0.93;;;16.20;99.90;;;;;;5017060;28;20210;-70
2022/07/22 04:37:03;;;;;;;0.70;0.70;;;16.30;99.90;;;;;;5016882;28;20414;-71
2022/07/22 04:39:29;;;;;;;2.03;1.93;;;16.30;99.90;;;;;;5016437;28;20652;-70
2022/07/22 04:41:55;;;;;;;1.23;0.83;;;16.30;99.90;;;;;;5015599;28;20461;-71
2022/07/22 04:44:20;;;;;;;1.50;1.40;;;16.30;99.90;;;;;;5012680;28;20429;-72
2022/07/22 04:46:46;;;;;;;1.00;1.00;;;16.40;99.90;;;;;;5015343;28;20171;-72
2022/07/22 04:49:12;;;;;;;1.67;1.50;;;16.50;99.90;;;;;;5015883;28;20241;-71
2022/07/22 04:51:38;;;;;;;1.10;0.67;;;16.70;99.90;;;;;;5015487;28;20540;-71
2022/07/22 04:54:04;;;;;;;1.53;1.43;;;17.20;99.90;;;;;;5014567;28;20436;-71
2022/07/22 04:56:30;;;;;;;1.37;1.27;;;17.60;99.90;;;;;;5015033;28;20172;-71
2022/07/22 04:58:56;;;;;;;1.60;1.50;;;17.90;99.90;;;;;;5014121;28;20574;-71
2022/07/22 05:01:21;;;;;;;2.73;2.53;;;18.10;99.90;;;;;;5015092;28;20278;-71
2022/07/22 05:03:48;;;;;;;1.83;1.73;;;18.50;99.90;;;;;;5016229;28;20209;-71
2022/07/22 05:06:15;;;;;;;1.53;1.07;;;18.80;99.80;;;;;;5014335;28;20179;-71
2022/07/22 05:08:41;;;;;;;2.60;2.50;;;19.10;99.90;;;;;;5014672;28;20466;-71
2022/07/22 05:11:07;;;;;;;1.00;0.80;;;19.30;98.50;;;;;;5016175;28;20909;-70
2022/07/22 05:13:33;;;;;;;0.97;0.97;;;19.50;98.00;;;;;;5016074;28;20413;-72
2022/07/22 05:16:03;;;;;;;2.43;1.40;;;19.80;97.90;;;;;;5012642;28;20183;-71
2022/07/22 05:18:29;;;;;;;0.77;0.77;;;20.00;96.80;;;;;;5014435;28;20427;-71
2022/07/22 05:20:54;;;;;;;0.80;0.77;;;20.50;96.80;;;;;;5013591;28;20485;-71
2022/07/22 05:23:20;;;;;;;0.70;0.63;;;20.60;95.20;;;;;;5014167;28;20210;-73
2022/07/22 05:25:45;;;;;;;1.17;1.07;;;21.00;95.50;;;;;;5013798;28;20562;-72
2022/07/22 05:28:11;;;;;;;1.93;1.83;;;21.30;95.40;;;;;;5015317;28;20195;-72
2022/07/22 05:30:37;;;;;;;1.23;1.23;;;21.50;95.30;;;;;;5014009;28;20720;-72
2022/07/22 05:33:02;;;;;;;1.63;1.33;;;21.70;94.50;;;;;;5014951;28;20220;-71
2022/07/22 05:35:28;;;;;;;1.20;0.70;;;21.80;94.30;;;;;;5014918;28;20177;-71
2022/07/22 05:37:56;;;;;;;1.40;1.30;;;21.90;94.00;;;;;;5015228;28;20230;-71
2022/07/22 05:40:22;;;;;;;0.80;0.70;;;21.80;93.70;;;;;;5015435;28;20244;-72
2022/07/22 05:42:48;;;;;;;0.63;0.63;;;21.70;94.00;;;;;;5015505;28;20454;-71
2022/07/22 05:45:13;;;;;;;0.80;0.80;;;21.50;94.90;;;;;;5015607;28;20411;-72
2022/07/22 05:47:39;;;;;;;1.60;1.50;;;21.50;94.90;;;;;;5012345;28;20755;-72
2022/07/22 05:50:05;;;;;;;1.00;1.00;;;21.50;94.30;;;;;;5014014;28;20187;-71
2022/07/22 05:52:31;;;;;;;0.97;0.73;;;21.50;94.30;;;;;;5015157;28;20176;-71
2022/07/22 05:55:00;;;;;;;1.10;1.00;;;21.60;95.40;;;;;;5014130;28;20416;-72
2022/07/22 05:57:26;;;;;;;0.90;0.90;;;21.80;94.70;;;;;;5014992;28;20187;-72
2022/07/22 05:59:51;;;;;;;0.70;0.70;;;22.20;94.00;;;;;;5013719;28;20449;-72
2022/07/22 06:02:17;;;;;;;1.50;1.40;;;22.70;92.80;;;;;;5014584;28;20198;-72
2022/07/22 06:04:43;;;;;;;0.67;0.67;;;22.90;93.00;;;;;;5013521;28;20214;-71
2022/07/22 06:07:08;;;;;;;0.97;0.90;;;23.00;91.30;;;;;;5014405;28;20173;-71
2022/07/22 06:09:34;;;;;;;1.83;1.23;;;23.00;92.10;;;;;;5012768;28;20252;-72
2022/07/22 06:11:59;;;;;;;1.43;1.23;;;22.90;90.70;;;;;;5014291;28;20182;-71
2022/07/22 06:14:25;;;;;;;2.00;1.43;;;22.60;91.20;;;;;;5013476;28;20184;-72
2022/07/22 06:16:51;;;;;;;1.03;0.87;;;22.60;93.60;;;;;;5011881;28;20693;-72
2022/07/22 06:19:16;;;;;;;1.27;1.10;;;22.80;91.10;;;;;;5014212;28;20301;-72
2022/07/22 06:21:42;;;;;;;1.53;1.43;;;23.10;91.50;;;;;;5013235;28;20175;-72
2022/07/22 06:24:08;;;;;;;1.03;1.00;;;23.80;90.80;;;;;;5013888;28;20549;-71
2022/07/22 06:26:33;;;;;;;1.77;1.67;;;24.20;90.10;;;;;;5012555;28;20177;-71
2022/07/22 06:28:59;;;;;;;1.13;1.03;;;24.70;87.70;;;;;;5013694;28;20620;-70
2022/07/22 06:31:24;;;;;;;0.73;0.73;;;25.30;84.10;;;;;;5013856;28;20171;-71
2022/07/22 06:33:50;;;;;;;2.00;1.37;;;25.50;81.80;;;;;;5013671;28;20217;-72
2022/07/22 06:36:17;;;;;;;1.00;1.00;;;25.90;81.10;;;;;;5014096;28;20531;-71
2022/07/22 06:38:43;;;;;;;1.10;1.00;;;26.30;78.90;;;;;;5014349;28;20163;-72
2022/07/22 06:41:10;;;;;;;4.60;1.47;;;26.10;77.00;;;;;;5012362;28;21032;-71
2022/07/22 06:43:36;;;;;;;1.10;1.00;;;26.10;77.80;;;;;;5014829;28;20428;-71
2022/07/22 06:46:01;;;;;;;1.00;1.00;;;26.10;76.50;;;;;;5011542;28;20423;-71
2022/07/22 06:48:27;;;;;;;1.27;1.20;;;26.80;76.60;;;;;;5012771;28;20377;-71
2022/07/22 06:50:53;;;;;;;1.07;0.90;;;27.30;73.90;;;;;;5014156;28;20643;-72
2022/07/22 06:53:19;;;;;;;1.17;1.17;;;28.10;71.10;;;;;;5014456;28;20277;-72
2022/07/22 06:55:45;;;;;;;1.60;1.30;;;28.40;70.20;;;;;;5014625;28;20485;-72
2022/07/22 06:58:11;;;;;;;1.27;1.17;;;29.30;69.30;;;;;;5013819;28;20429;-71
2022/07/22 07:00:37;;;;;;;1.40;1.30;;;29.90;63.90;;;;;;5012154;28;20195;-71
2022/07/22 07:03:02;;;;;;;4.20;2.33;;;29.90;62.90;;;;;;5013421;28;20458;-71
2022/07/22 07:05:28;;;;;;;1.80;1.43;;;30.30;60.90;;;;;;5011726;28;20171;-71
2022/07/22 07:07:55;;;;;;;2.00;1.90;;;30.70;59.70;;;;;;5010184;28;20548;-71
2022/07/22 07:10:21;;;;;;;1.90;1.80;;;31.50;59.30;;;;;;5013236;28;20273;-71
2022/07/22 07:12:47;;;;;;;1.53;1.43;;;32.10;56.30;;;;;;5011013;28;20509;-71
2022/07/22 07:15:12;;;;;;;1.43;1.33;;;32.90;54.50;;;;;;5012944;28;20501;-71
2022/07/22 07:17:38;;;;;;;1.20;1.13;;;32.60;53.80;;;;;;5013518;28;20238;-72
2022/07/22 07:20:05;;;;;;;1.43;1.33;;;32.00;53.50;;;;;;5013850;28;20187;-72
2022/07/22 07:22:32;;;;;;;1.47;1.37;;;31.50;55.20;;;;;;5013996;28;20198;-72
2022/07/22 07:25:03;;;;;;;2.23;1.63;;;30.90;57.20;;;;;;5013645;28;20426;-72
2022/07/22 07:27:28;;;;;;;1.20;1.20;;;30.80;56.60;;;;;;5013985;28;20406;-71
2022/07/22 07:29:54;;;;;;;1.90;1.37;;;30.60;55.90;;;;;;5013570;28;20418;-71
2022/07/22 07:32:20;;;;;;;1.33;1.10;;;30.90;56.80;;;;;;5014133;28;20167;-72
2022/07/22 07:34:45;;;;;;;2.00;1.30;;;31.50;55.80;;;;;;5017766;28;20167;-72
2022/07/22 07:37:11;;;;;;;1.10;1.00;;;32.00;53.90;;;;;;5017734;28;20584;-72
2022/07/22 07:39:37;;;;;;;1.60;1.43;;;32.50;52.80;;;;;;5017669;28;20183;-72
2022/07/22 07:42:03;;;;;;;1.77;1.60;;;33.30;53.30;;;;;;5017911;28;20449;-72
2022/07/22 07:44:28;;;;;;;0.83;0.83;;;34.30;49.30;;;;;;5018109;28;20171;-69
2022/07/22 07:46:55;;;;;;;1.73;1.17;;;35.50;48.60;;;;;;5017458;28;20168;-69
2022/07/22 07:49:20;;;;;;;1.70;1.60;;;36.70;45.70;;;;;;5017262;28;20190;-69
2022/07/22 07:51:46;;;;;;;1.83;1.50;;;36.80;43.30;;;;;;5016304;28;20414;-70
2022/07/22 07:54:11;;;;;;;1.50;1.40;;;37.40;42.50;;;;;;5017729;28;20171;-69
2022/07/22 07:56:37;;;;;;;2.00;1.80;;;38.20;40.60;;;;;;5017806;28;20191;-69
2022/07/22 07:59:03;;;;;;;3.23;1.77;;;38.50;40.10;;;;;;5032736;28;20167;-70
2022/07/22 08:01:29;;;;;;;1.93;1.83;;;38.10;41.00;;;;;;5017142;28;20242;-70
2022/07/22 08:03:54;;;;;;;1.03;1.03;;;38.40;38.40;;;;;;5017221;28;20202;-70
2022/07/22 08:06:20;;;;;;;1.50;1.40;;;38.80;38.70;;;;;;5017273;28;20163;-70
2022/07/22 08:08:46;;;;;;;1.30;1.20;;;39.30;38.70;;;;;;5015451;28;20175;-69
2022/07/22 08:11:13;;;;;;;1.93;1.83;;;39.90;36.80;;;;;;5017415;28;20246;-69
2022/07/22 08:13:39;;;;;;;2.17;1.97;;;39.80;36.90;;;;;;5015261;28;20874;-69
2022/07/22 08:16:04;;;;;;;1.83;1.70;;;39.60;35.40;;;;;;5014218;28;20520;-69
2022/07/22 08:18:30;;;;;;;2.10;1.80;;;39.20;36.40;;;;;;5016231;28;20172;-69
2022/07/22 08:20:56;;;;;;;1.90;1.20;;;38.20;37.00;;;;;;5015889;28;20192;-69
2022/07/22 08:23:22;;;;;;;1.63;1.53;;;37.80;38.50;;;;;;5014203;28;20203;-69
2022/07/22 08:25:47;;;;;;;1.47;1.10;;;37.10;38.80;;;;;;5011735;28;20472;-69
2022/07/22 08:28:14;;;;;;;1.43;1.07;;;36.20;39.40;;;;;;5015970;28;20172;-68
2022/07/22 08:30:40;;;;;;;2.20;1.67;;;35.00;40.10;;;;;;5015447;28;20193;-68
2022/07/22 08:33:06;;;;;;;1.17;1.00;;;34.80;41.80;;;;;;5013549;28;20426;-67
2022/07/22 08:35:32;;;;;;;1.50;1.40;;;35.30;41.60;;;;;;5016749;28;20717;-69
2022/07/22 08:37:58;;;;;;;1.60;1.50;;;36.60;40.20;;;;;;5014395;28;20406;-69
2022/07/22 08:40:24;;;;;;;1.30;1.20;;;37.80;38.50;;;;;;5016260;28;20480;-69
2022/07/22 08:42:49;;;;;;;1.73;1.63;;;38.30;36.80;;;;;;5016140;28;20199;-67
2022/07/22 08:45:16;;;;;;;1.20;1.10;;;38.60;35.80;;;;;;5014887;28;20182;-69
2022/07/22 08:47:47;;;;;;;1.57;1.47;;;39.20;36.00;;;;;;5016316;28;20335;-70
2022/07/22 08:50:13;;;;;;;1.80;1.70;;;39.30;35.00;;;;;;5016535;28;20418;-70
2022/07/22 08:52:39;;;;;;;1.80;1.63;;;39.70;34.10;;;;;;5016710;28;20465;-66
2022/07/22 08:55:07;;;;;;;1.57;1.47;;;39.60;34.90;;;;;;5016685;28;20183;-70
2022/07/22 08:57:32;;;;;;;1.63;1.53;;;39.90;34.30;;;;;;5016442;28;20242;-70
2022/07/22 08:59:59;;;;;;;1.93;1.83;;;40.30;35.00;;;;;;5016348;28;20434;-69
2022/07/22 09:02:26;;;;;;;1.97;1.80;;;40.40;33.60;;;;;;5016117;28;20195;-69
2022/07/22 09:05:13;;;;;;;1.50;1.40;;;40.40;33.50;;;;;;5016005;28;20399;-70
2022/07/22 09:07:41;;;;;;;1.80;1.70;;;40.70;33.50;;;;;;5015994;28;20399;-69
2022/07/22 09:10:12;;;;;;;1.90;1.80;;;40.30;33.60;;;;;;5016249;28;20429;-69
2022/07/22 09:12:59;;;;;;;1.10;1.00;;;40.10;33.80;;;;;;5014338;28;20455;-69
2022/07/22 09:15:28;;;;;;;1.43;1.33;;;40.60;32.60;;;;;;5015409;28;20410;-69
2022/07/22 09:17:54;;;;;;;1.60;1.50;;;41.20;32.70;;;;;;5015391;28;20923;-70
2022/07/22 09:20:20;;;;;;;1.00;1.00;;;41.30;32.20;;;;;;5013560;28;20422;-69
2022/07/22 09:22:48;;;;;;;1.93;1.40;;;40.70;32.00;;;;;;5014440;28;20446;-70
2022/07/22 09:25:31;;;;;;;1.37;1.27;;;39.90;33.40;;;;;;5015085;28;20187;-69
2022/07/22 09:28:18;;;;;;;1.50;1.37;;;40.10;33.80;;;;;;5013708;28;20406;-70
2022/07/22 09:30:50;;;;;;;1.97;1.50;;;39.80;34.40;;;;;;5015312;28;20433;-70
2022/07/22 09:33:16;;;;;;;1.30;1.20;;;39.70;33.00;;;;;;5015489;28;20411;-70
2022/07/22 09:35:43;;;;;;;1.47;1.30;;;39.60;32.90;;;;;;5015439;28;20406;-70
2022/07/22 09:38:11;;;;;;;1.20;1.10;;;39.20;32.90;;;;;;5015627;28;20441;-69
2022/07/22 09:40:43;;;;;;;2.07;1.70;;;39.20;33.30;;;;;;5015380;28;20958;-70
2022/07/22 09:43:18;;;;;;;1.30;1.20;;;39.00;33.80;;;;;;5014573;28;20457;-69
2022/07/22 09:45:57;;;;;;;1.67;1.57;;;38.90;33.90;;;;;;5015265;28;20402;-69
2022/07/22 09:48:23;;;;;;;1.33;1.23;;;38.70;33.80;;;;;;5015200;28;20413;-69
2022/07/22 09:50:50;;;;;;;1.60;1.50;;;38.80;34.70;;;;;;5015480;28;20769;-70
2022/07/22 09:53:19;;;;;;;1.60;1.50;;;39.30;34.40;;;;;;5015575;28;20164;-70
2022/07/22 09:55:45;;;;;;;1.97;1.87;;;39.10;32.90;;;;;;5014655;28;20485;-70
2022/07/22 09:58:11;;;;;;;1.70;1.60;;;39.10;32.70;;;;;;5013003;28;20870;-72
2022/07/22 10:00:39;;;;;;;1.00;1.00;;;38.80;34.10;;;;;;5013114;28;20423;-71
2022/07/22 10:03:12;;;;;;;1.67;1.57;;;39.20;32.80;;;;;;5012498;28;20445;-70
2022/07/22 10:05:40;;;;;;;1.27;1.17;;;38.90;33.10;;;;;;5014732;28;20403;-70
2022/07/22 10:08:08;;;;;;;2.50;1.90;;;38.50;34.80;;;;;;5014610;28;20403;-70
2022/07/22 10:10:36;;;;;;;1.60;1.50;;;38.10;34.10;;;;;;5014470;28;20429;-70
2022/07/22 10:13:05;;;;;;;0.90;0.90;;;38.10;33.90;;;;;;5014536;28;20411;-70
2022/07/22 10:15:32;;;;;;;1.50;1.40;;;38.20;32.70;;;;;;5014551;28;20463;-70
2022/07/22 10:18:04;;;;;;;2.30;1.20;;;37.70;34.30;;;;;;5014547;28;20410;-70
2022/07/22 10:20:31;;;;;;;1.47;1.37;;;37.70;33.80;;;;;;5013192;28;20996;-70
2022/07/22 10:22:59;;;;;;;1.67;1.57;;;37.90;34.50;;;;;;5013217;28;20473;-70
2022/07/22 10:25:27;;;;;;;1.43;1.33;;;38.00;35.10;;;;;;5013204;28;20428;-70
2022/07/22 10:28:04;;;;;;;1.57;1.33;;;37.70;34.70;;;;;;5013355;28;20398;-70
2022/07/22 10:30:30;;;;;;;1.47;1.20;;;37.20;34.90;;;;;;5014370;28;20440;-70
2022/07/22 10:33:04;;;;;;;1.50;1.40;;;37.00;34.70;;;;;;5014430;28;20485;-70
2022/07/22 10:35:31;;;;;;;2.87;2.43;;;36.80;33.80;;;;;;5014381;28;20251;-69
2022/07/22 10:37:59;;;;;;;1.73;1.40;;;36.60;36.80;;;;;;5014166;28;20410;-70
2022/07/22 10:40:30;;;;;;;0.97;0.97;;;36.30;34.40;;;;;;5014105;28;20453;-70
2022/07/22 10:43:08;;;;;;;1.50;1.40;;;36.10;35.90;;;;;;5014348;28;20446;-70
2022/07/22 10:45:43;;;;;;;1.57;1.47;;;36.20;34.80;;;;;;5014241;28;20401;-70
2022/07/22 10:48:16;;;;;;;2.10;1.53;;;36.20;34.00;;;;;;5013865;28;20418;-70
2022/07/22 10:50:51;;;;;;;1.70;1.60;;;35.80;34.50;;;;;;5014439;28;20480;-69
2022/07/22 10:53:23;;;;;;;1.30;1.20;;;35.30;36.20;;;;;;5014250;28;20406;-69
2022/07/22 10:56:11;;;;;;;1.53;1.43;;;35.00;36.60;;;;;;5013513;28;20769;-69
2022/07/22 10:58:38;;;;;;;1.07;1.00;;;35.00;37.40;;;;;;5013416;28;20406;-70
2022/07/22 11:01:10;;;;;;;1.00;1.00;;;35.20;38.70;;;;;;5014234;28;20422;-71
2022/07/22 11:03:37;;;;;;;2.00;1.80;;;35.20;39.40;;;;;;5012415;28;20461;-71
2022/07/22 11:06:17;;;;;;;1.63;1.53;;;34.90;37.20;;;;;;5014232;28;20430;-70
2022/07/22 11:08:45;;;;;;;1.73;1.63;;;34.30;40.40;;;;;;5013076;28;20961;-70
2022/07/22 11:11:11;;;;;;;1.43;1.27;;;33.90;40.10;;;;;;5012438;28;20836;-70
2022/07/22 11:13:38;;;;;;;1.77;1.50;;;33.00;39.50;;;;;;5013685;28;20405;-70
2022/07/22 11:16:33;;;;;;;1.40;1.30;;;32.70;40.90;;;;;;5011870;28;20163;-70
2022/07/22 11:19:02;;;;;;;2.13;1.60;;;32.40;40.20;;;;;;5000344;28;20433;-70
2022/07/22 11:21:30;;;;;;;1.27;1.10;;;32.10;40.60;;;;;;5013535;28;20816;-70
2022/07/22 11:23:58;;;;;;;1.43;1.33;;;32.20;41.00;;;;;;5012106;28;20533;-70
2022/07/22 11:26:44;;;;;;;1.87;1.70;;;31.90;41.00;;;;;;5014265;28;20402;-70
2022/07/22 11:29:33;;;;;;;1.80;1.17;;;31.70;43.00;;;;;;5011961;28;20493;-70
2022/07/22 11:32:02;;;;;;;1.50;1.40;;;31.50;42.60;;;;;;5013748;28;20549;-69
2022/07/22 11:34:28;;;;;;;1.67;1.57;;;31.70;43.10;;;;;;5013994;28;20743;-69
2022/07/22 11:36:54;;;;;;;2.50;1.83;;;32.00;43.00;;;;;;5013587;28;20485;-70
2022/07/22 11:39:26;;;;;;;1.73;1.63;;;32.00;41.10;;;;;;5014122;28;20195;-70
2022/07/22 11:41:54;;;;;;;1.40;1.30;;;31.90;39.60;;;;;;5014171;28;20391;-70
2022/07/22 11:44:22;;;;;;;1.33;1.23;;;31.80;42.40;;;;;;5013725;28;20415;-71
2022/07/22 11:46:48;;;;;;;1.57;1.47;;;32.00;40.30;;;;;;5013625;28;20415;-70
2022/07/22 11:49:21;;;;;;;1.43;1.33;;;31.80;42.20;;;;;;5013392;28;20442;-70
2022/07/22 11:51:47;;;;;;;1.37;1.27;;;31.90;41.10;;;;;;5014016;28;20922;-69
2022/07/22 11:54:13;;;;;;;1.40;1.30;;;31.90;39.40;;;;;;5014043;28;20425;-69
2022/07/22 11:56:40;;;;;;;2.10;1.90;;;31.60;41.20;;;;;;5014010;28;20898;-69
2022/07/22 11:59:08;;;;;;;0.70;0.70;;;31.50;38.50;;;;;;5011933;28;20184;-70
2022/07/22 12:01:35;;;;;;;1.43;1.30;;;31.60;39.90;;;;;;5013383;28;20779;-71
2022/07/22 12:04:07;;;;;;;1.80;1.70;;;31.40;39.10;;;;;;5013654;28;20541;-70
2022/07/22 12:06:37;;;;;;;2.57;1.67;;;31.60;42.00;;;;;;5013496;28;20406;-71
2022/07/22 12:09:08;;;;;;;1.60;1.50;;;31.70;42.20;;;;;;5013120;28;20406;-70
2022/07/22 12:11:40;;;;;;;2.40;2.20;;;31.80;41.60;;;;;;5012068;28;20403;-70
2022/07/22 12:14:11;;;;;;;1.70;1.40;;;31.90;40.90;;;;;;5013664;28;20407;-69
2022/07/22 12:16:38;;;;;;;2.57;1.80;;;31.90;41.60;;;;;;5012906;28;20410;-69
2022/07/22 12:19:03;;;;;;;1.93;1.70;;;32.10;40.50;;;;;;5013510;28;20410;-69
2022/07/22 12:21:32;;;;;;;1.77;1.30;;;31.90;40.60;;;;;;5015435;28;20414;-69
2022/07/22 12:24:04;;;;;;;1.17;1.07;;;31.90;41.60;;;;;;5016565;28;20210;-69
2022/07/22 12:26:43;;;;;;;1.10;1.10;;;31.70;42.50;;;;;;5014791;28;20911;-69
2022/07/22 12:29:21;;;;;;;1.50;1.40;;;31.60;41.30;;;;;;5015727;28;20895;-69
2022/07/22 12:31:52;;;;;;;1.60;1.50;;;31.40;41.50;;;;;;5016565;28;20410;-70
2022/07/22 12:34:30;;;;;;;1.23;1.13;;;31.30;41.60;;;;;;5016899;28;20425;-69
2022/07/22 12:36:56;;;;;;;2.20;2.00;;;31.20;39.50;;;;;;5016340;28;20918;-70
2022/07/22 12:39:22;;;;;;;1.70;1.53;;;31.30;41.90;;;;;;5016476;28;20434;-69
2022/07/22 12:41:51;;;;;;;2.13;1.93;;;31.20;40.40;;;;;;5016549;28;20179;-69
2022/07/22 12:44:18;;;;;;;1.30;1.20;;;31.00;40.70;;;;;;5016470;28;20175;-69
2022/07/22 12:46:46;;;;;;;1.67;1.50;;;30.90;40.60;;;;;;5016439;28;20403;-70
2022/07/22 12:49:12;;;;;;;1.80;1.70;;;30.70;40.50;;;;;;5015896;28;20409;-69